Time;durP1;ratioP1;P1;durP2;ratioP2;P2;SDS_P1;SDS_P2;PMS_P1;PMS_P2;Temp;Humidity;BMP_temperature;BMP_pressure;BME280_temperature;BME280_humidity;BME280_pressure;Samples;Min_cycle;Max_cycle;Signal;HPM_P1;HPM_P2
2021/04/30 00:02:19;;;;;;;6.43;3.75;;;16.20;78.40;;;;;;4966875;28;95925;-57
2021/04/30 00:04:50;;;;;;;5.97;4.37;;;16.30;78.30;;;;;;4977218;28;95467;-55
2021/04/30 00:07:21;;;;;;;4.28;3.22;;;16.30;78.20;;;;;;4976310;28;96411;-55
2021/04/30 00:09:50;;;;;;;6.13;3.95;;;16.30;78.20;;;;;;4974984;28;95850;-57
2021/04/30 00:12:20;;;;;;;5.95;4.20;;;16.30;78.10;;;;;;4973687;28;97725;-57
2021/04/30 00:14:51;;;;;;;5.30;3.65;;;16.40;78.10;;;;;;4970836;28;95439;-56
2021/04/30 00:17:21;;;;;;;5.03;3.65;;;16.40;78.00;;;;;;4971209;28;95848;-57
2021/04/30 00:19:53;;;;;;;8.18;3.75;;;16.40;78.10;;;;;;4974262;28;103015;-57
2021/04/30 00:22:24;;;;;;;4.22;3.58;;;16.30;78.10;;;;;;4980483;28;95562;-55
2021/04/30 00:24:55;;;;;;;4.30;3.03;;;16.40;78.10;;;;;;4981073;28;95756;-55
2021/04/30 00:27:26;;;;;;;5.55;3.75;;;16.50;78.00;;;;;;4997221;28;96117;-56
2021/04/30 00:29:56;;;;;;;5.18;3.53;;;16.50;77.90;;;;;;4975851;28;95679;-56
2021/04/30 00:32:25;;;;;;;4.78;3.63;;;16.60;77.90;;;;;;4968041;28;95959;-56
2021/04/30 00:34:55;;;;;;;3.35;3.00;;;16.60;77.80;;;;;;4973238;28;95650;-54
2021/04/30 00:37:24;;;;;;;4.93;3.38;;;16.60;77.70;;;;;;4977475;28;96534;-55
2021/04/30 00:39:54;;;;;;;8.45;4.05;;;16.70;77.70;;;;;;4971963;28;95922;-55
2021/04/30 00:42:25;;;;;;;3.50;2.88;;;16.70;77.50;;;;;;4970651;28;95504;-54
2021/04/30 00:44:55;;;;;;;4.40;3.33;;;16.70;77.60;;;;;;4978007;28;95746;-56
2021/04/30 00:47:31;;;;;;;5.03;3.33;;;16.80;77.70;;;;;;4967912;28;95862;-54
2021/04/30 00:50:07;;;;;;;3.15;2.78;;;16.80;77.60;;;;;;4966705;28;96381;-56
2021/04/30 00:52:39;;;;;;;4.00;3.10;;;16.90;77.60;;;;;;4972019;28;95749;-56
2021/04/30 00:55:15;;;;;;;4.00;3.40;;;16.90;77.50;;;;;;4968119;28;95769;-55
2021/04/30 00:57:57;;;;;;;3.88;2.70;;;17.00;77.40;;;;;;4983213;28;95885;-57
2021/04/30 01:00:29;;;;;;;4.05;2.70;;;17.00;77.40;;;;;;4964355;28;102920;-53
2021/04/30 01:02:59;;;;;;;4.55;3.08;;;17.10;77.20;;;;;;4973526;28;95532;-56
2021/04/30 01:05:30;;;;;;;5.40;2.85;;;17.20;77.10;;;;;;4972591;28;95886;-57
2021/04/30 01:08:02;;;;;;;2.70;2.50;;;17.20;77.00;;;;;;4976691;28;95949;-55
2021/04/30 01:10:33;;;;;;;4.45;3.03;;;17.20;76.90;;;;;;4984545;28;95449;-54
2021/04/30 01:13:03;;;;;;;8.63;3.25;;;17.30;76.80;;;;;;4969815;28;95849;-56
2021/04/30 01:15:34;;;;;;;4.50;2.92;;;17.30;76.50;;;;;;4970827;28;95667;-56
2021/04/30 01:18:06;;;;;;;4.10;2.65;;;17.40;76.40;;;;;;4971490;28;95912;-55
2021/04/30 01:20:36;;;;;;;4.50;2.92;;;17.50;76.40;;;;;;4968212;28;95803;-54
2021/04/30 01:23:10;;;;;;;3.72;2.67;;;17.50;76.20;;;;;;4965958;28;95756;-58
2021/04/30 01:25:42;;;;;;;5.18;2.80;;;17.60;75.90;;;;;;4980385;28;95950;-56
2021/04/30 01:28:14;;;;;;;3.22;2.67;;;17.70;75.80;;;;;;4976234;28;95915;-57
2021/04/30 01:30:44;;;;;;;3.25;2.90;;;17.80;75.60;;;;;;4981544;28;95872;-57
2021/04/30 01:33:22;;;;;;;2.97;2.75;;;17.80;75.40;;;;;;4974884;28;95808;-57
2021/04/30 01:35:51;;;;;;;4.40;3.05;;;17.90;75.40;;;;;;4972017;28;95698;-57
2021/04/30 01:38:21;;;;;;;3.40;2.80;;;18.00;75.00;;;;;;4965858;28;95808;-57
2021/04/30 01:40:51;;;;;;;5.40;2.90;;;18.00;74.80;;;;;;4969643;28;95849;-56
2021/04/30 01:43:24;;;;;;;3.20;2.57;;;18.10;74.90;;;;;;4978204;28;96088;-53
2021/04/30 01:45:59;;;;;;;3.50;2.55;;;18.30;74.80;;;;;;4969951;28;95799;-54
2021/04/30 01:48:33;;;;;;;3.95;2.95;;;18.50;74.50;;;;;;4979557;28;95924;-56
2021/04/30 01:51:04;;;;;;;4.07;2.92;;;18.80;74.30;;;;;;4980103;28;98540;-56
2021/04/30 01:53:37;;;;;;;3.47;2.15;;;19.00;74.00;;;;;;4980388;28;95883;-55
2021/04/30 01:56:11;;;;;;;2.50;2.28;;;19.10;73.80;;;;;;4977029;28;96134;-58
2021/04/30 01:58:43;;;;;;;3.35;2.17;;;19.30;73.70;;;;;;4986528;28;96482;-56
2021/04/30 02:01:14;;;;;;;2.55;2.35;;;19.40;73.50;;;;;;4980936;28;95768;-56
2021/04/30 02:03:44;;;;;;;3.10;2.70;;;19.50;73.50;;;;;;4961428;28;96546;-53
2021/04/30 02:06:15;;;;;;;2.92;2.50;;;19.70;73.20;;;;;;4975258;28;95677;-55
2021/04/30 02:08:45;;;;;;;2.92;2.35;;;19.90;72.90;;;;;;4987616;28;96048;-56
2021/04/30 02:11:16;;;;;;;4.25;2.60;;;20.00;72.70;;;;;;4974686;28;97996;-55
2021/04/30 02:13:46;;;;;;;2.35;2.15;;;20.10;72.30;;;;;;4976138;28;96476;-54
2021/04/30 02:16:16;;;;;;;2.60;2.40;;;20.30;72.30;;;;;;4993756;28;95616;-54
2021/04/30 02:18:47;;;;;;;3.13;2.13;;;20.40;72.10;;;;;;4972436;28;96526;-56
2021/04/30 02:21:17;;;;;;;2.60;2.40;;;20.50;71.80;;;;;;4973367;28;95693;-53
2021/04/30 02:23:48;;;;;;;2.47;2.13;;;20.60;71.70;;;;;;4987171;28;95583;-51
2021/04/30 02:26:19;;;;;;;3.00;2.45;;;20.80;71.50;;;;;;4972876;28;95144;-55
2021/04/30 02:28:50;;;;;;;2.97;2.22;;;20.90;71.40;;;;;;4974525;28;96014;-55
2021/04/30 02:31:20;;;;;;;2.78;2.58;;;21.00;71.20;;;;;;4977621;28;95454;-52
2021/04/30 02:33:51;;;;;;;2.20;2.00;;;21.10;71.10;;;;;;4969544;28;95324;-52
2021/04/30 02:36:22;;;;;;;2.95;2.47;;;21.20;71.00;;;;;;4974885;28;96149;-56
2021/04/30 02:38:53;;;;;;;2.33;2.15;;;21.30;70.90;;;;;;4986158;28;95867;-54
2021/04/30 02:41:24;;;;;;;2.72;2.45;;;21.50;70.60;;;;;;4979419;28;95251;-54
2021/04/30 02:43:54;;;;;;;2.95;2.63;;;21.50;70.70;;;;;;4977733;28;95619;-53
2021/04/30 02:46:25;;;;;;;2.47;2.28;;;21.30;67.10;;;;;;4979441;28;95968;-55
2021/04/30 02:49:02;;;;;;;2.97;2.40;;;21.20;69.00;;;;;;4982937;28;95863;-56
2021/04/30 02:51:33;;;;;;;2.45;2.25;;;21.40;68.80;;;;;;4975375;28;95505;-55
2021/04/30 02:54:04;;;;;;;2.67;2.42;;;21.60;68.70;;;;;;4970945;28;95696;-53
2021/04/30 02:56:37;;;;;;;2.88;2.67;;;21.70;68.60;;;;;;4981444;28;95864;-57
2021/04/30 02:59:07;;;;;;;3.70;2.58;;;21.90;68.60;;;;;;4972307;28;95947;-54
2021/04/30 03:01:37;;;;;;;2.90;2.70;;;22.10;68.50;;;;;;4968300;28;96004;-59
2021/04/30 03:04:08;;;;;;;2.53;2.33;;;22.20;68.60;;;;;;4970325;28;96421;-58
2021/04/30 03:06:39;;;;;;;4.10;2.92;;;22.30;68.40;;;;;;4975424;28;95682;-56
2021/04/30 03:09:11;;;;;;;3.05;2.45;;;22.40;68.40;;;;;;4976891;28;95848;-56
2021/04/30 03:11:43;;;;;;;2.85;2.45;;;22.50;68.30;;;;;;4966217;28;95587;-58
2021/04/30 03:14:13;;;;;;;2.90;2.58;;;22.60;68.30;;;;;;4967189;28;95521;-57
2021/04/30 03:16:43;;;;;;;2.97;2.30;;;22.70;68.20;;;;;;4967138;28;98336;-56
2021/04/30 03:19:15;;;;;;;2.53;2.33;;;22.80;68.60;;;;;;4988268;28;98005;-58
2021/04/30 03:21:46;;;;;;;2.63;2.40;;;22.80;67.80;;;;;;4972619;28;95860;-58
2021/04/30 03:24:16;;;;;;;2.45;2.25;;;22.80;67.50;;;;;;4969096;28;95554;-57
2021/04/30 03:26:48;;;;;;;3.00;2.80;;;22.80;67.20;;;;;;4968015;28;95718;-59
2021/04/30 03:29:20;;;;;;;4.43;3.22;;;22.70;65.40;;;;;;4966946;28;96555;-55
2021/04/30 03:31:49;;;;;;;3.28;2.95;;;22.40;64.80;;;;;;4971478;28;96917;-54
2021/04/30 03:34:19;;;;;;;10.82;3.30;;;22.10;65.80;;;;;;4973733;28;96010;-54
2021/04/30 03:36:49;;;;;;;3.30;3.00;;;21.80;66.50;;;;;;4964009;28;95528;-56
2021/04/30 03:39:18;;;;;;;5.57;3.42;;;21.70;67.10;;;;;;4968203;28;95979;-52
2021/04/30 03:41:51;;;;;;;3.20;2.90;;;21.60;67.40;;;;;;4967062;28;96222;-57
2021/04/30 03:44:20;;;;;;;3.67;3.33;;;21.50;67.60;;;;;;4971390;28;95989;-52
2021/04/30 03:46:51;;;;;;;3.63;3.05;;;21.60;67.50;;;;;;4965748;28;95569;-55
2021/04/30 03:49:23;;;;;;;8.40;3.60;;;21.50;67.30;;;;;;4968031;28;95892;-62
2021/04/30 03:51:54;;;;;;;4.88;3.33;;;21.50;67.70;;;;;;4969952;28;97429;-60
2021/04/30 03:54:24;;;;;;;3.67;3.07;;;21.50;67.80;;;;;;4966018;28;95571;-61
2021/04/30 03:56:55;;;;;;;3.38;3.00;;;21.50;68.00;;;;;;4970692;28;95668;-56
2021/04/30 03:59:24;;;;;;;4.30;3.38;;;21.50;67.90;;;;;;4975111;28;95842;-58
2021/04/30 04:01:54;;;;;;;4.50;3.80;;;21.60;68.10;;;;;;4968386;28;96023;-53
2021/04/30 04:04:26;;;;;;;4.67;3.33;;;21.60;68.00;;;;;;4968749;28;101613;-57
2021/04/30 04:06:57;;;;;;;3.75;3.20;;;21.60;68.10;;;;;;4970849;28;96266;-56
2021/04/30 04:09:28;;;;;;;3.85;3.10;;;21.70;68.30;;;;;;4967161;28;96076;-57
2021/04/30 04:11:58;;;;;;;5.00;2.90;;;21.70;68.30;;;;;;4969788;28;96273;-55
2021/04/30 04:14:31;;;;;;;4.32;3.03;;;21.80;68.40;;;;;;4983887;28;96237;-54
2021/04/30 04:17:00;;;;;;;;;;;21.80;68.40;;;;;;4968850;28;95891;-55
2021/04/30 04:19:51;;;;;;;7.68;3.13;;;21.80;68.60;;;;;;4972641;28;96111;-57
2021/04/30 04:22:22;;;;;;;6.72;3.45;;;21.80;68.70;;;;;;4970337;28;96135;-54
2021/04/30 04:24:53;;;;;;;6.20;3.45;;;21.80;69.40;;;;;;4968904;28;95794;-54
2021/04/30 04:27:24;;;;;;;4.50;3.25;;;21.80;69.30;;;;;;4966704;28;95999;-54
2021/04/30 04:29:54;;;;;;;4.95;2.75;;;21.90;69.30;;;;;;4971932;28;95847;-56
2021/04/30 04:32:23;;;;;;;4.28;2.80;;;21.90;69.30;;;;;;4972802;28;95826;-54
2021/04/30 04:34:53;;;;;;;3.53;3.22;;;21.90;69.50;;;;;;4972112;28;95765;-54
2021/04/30 04:37:24;;;;;;;3.00;2.72;;;22.00;69.60;;;;;;4961496;28;103308;-54
2021/04/30 04:39:55;;;;;;;6.63;2.92;;;21.90;70.20;;;;;;4968451;28;95913;-56
2021/04/30 04:42:26;;;;;;;2.95;2.72;;;21.90;70.20;;;;;;4953163;28;97351;-54
2021/04/30 04:44:58;;;;;;;2.83;2.45;;;21.90;70.20;;;;;;4969317;28;95739;-53
2021/04/30 04:47:29;;;;;;;5.18;3.47;;;21.90;70.00;;;;;;4972235;28;95635;-54
2021/04/30 04:50:00;;;;;;;3.55;3.05;;;21.80;70.40;;;;;;4970204;28;95838;-54
2021/04/30 04:52:30;;;;;;;4.20;2.87;;;21.70;70.40;;;;;;4968885;28;95889;-54
2021/04/30 04:55:01;;;;;;;5.03;3.35;;;21.70;70.50;;;;;;4968569;28;96425;-56
2021/04/30 04:57:32;;;;;;;;;;;21.70;70.70;;;;;;4966560;28;95347;-57
2021/04/30 05:00:01;;;;;;;3.42;2.85;;;21.70;71.00;;;;;;4969609;28;95923;-53
2021/04/30 05:02:31;;;;;;;3.15;2.63;;;21.80;70.80;;;;;;4964566;28;95437;-58
2021/04/30 05:05:03;;;;;;;5.33;2.87;;;21.80;70.60;;;;;;4972485;28;95586;-56
2021/04/30 05:07:34;;;;;;;4.53;3.15;;;21.90;70.80;;;;;;4966956;28;95751;-55
2021/04/30 05:10:05;;;;;;;6.97;3.17;;;21.90;70.70;;;;;;4979606;28;95861;-55
2021/04/30 05:12:35;;;;;;;3.43;2.63;;;21.90;70.70;;;;;;4969406;28;96264;-53
2021/04/30 05:15:06;;;;;;;3.28;2.97;;;21.90;70.70;;;;;;4968694;28;95540;-56
2021/04/30 05:17:36;;;;;;;3.55;3.25;;;22.00;70.70;;;;;;4963098;28;95858;-57
2021/04/30 05:20:08;;;;;;;6.88;3.28;;;21.90;70.90;;;;;;4971550;28;96233;-52
2021/04/30 05:22:42;;;;;;;5.20;3.35;;;22.00;70.90;;;;;;4968270;28;95650;-55
2021/04/30 05:25:14;;;;;;;6.72;3.75;;;22.20;70.50;;;;;;4970635;28;95935;-57
2021/04/30 05:27:45;;;;;;;3.20;2.90;;;22.40;70.00;;;;;;4968361;28;95795;-56
2021/04/30 05:30:17;;;;;;;3.50;3.20;;;22.40;69.70;;;;;;4970472;28;97026;-55
2021/04/30 05:32:51;;;;;;;4.78;3.47;;;22.30;69.80;;;;;;4965743;28;102462;-55
2021/04/30 05:35:20;;;;;;;4.65;3.25;;;22.20;69.90;;;;;;4968201;28;96011;-57
2021/04/30 05:37:50;;;;;;;3.17;2.88;;;22.30;70.10;;;;;;4970709;28;96064;-58
2021/04/30 05:40:19;;;;;;;5.22;3.13;;;22.20;70.10;;;;;;4968711;28;95907;-57
2021/04/30 05:42:50;;;;;;;3.00;2.60;;;22.30;70.30;;;;;;4971230;28;97489;-54
2021/04/30 05:45:21;;;;;;;4.78;3.13;;;22.20;70.20;;;;;;4969192;28;95764;-58
2021/04/30 05:47:52;;;;;;;5.00;2.90;;;22.20;70.20;;;;;;4971937;28;95884;-59
2021/04/30 05:50:22;;;;;;;4.13;3.25;;;22.20;70.30;;;;;;4968991;28;96427;-57
2021/04/30 05:52:53;;;;;;;6.10;3.30;;;22.40;70.50;;;;;;4956752;28;98822;-56
2021/04/30 05:55:23;;;;;;;3.40;3.08;;;22.60;70.00;;;;;;4968895;28;95766;-58
2021/04/30 05:57:54;;;;;;;3.63;2.45;;;22.70;69.70;;;;;;4969068;28;95758;-58
2021/04/30 06:00:24;;;;;;;;;;;22.80;69.50;;;;;;4966014;28;95911;-57
2021/04/30 06:02:55;;;;;;;4.53;3.42;;;23.00;69.30;;;;;;4968164;28;95698;-59
2021/04/30 06:05:27;;;;;;;4.00;3.05;;;23.00;69.30;;;;;;4966570;28;95695;-53
2021/04/30 06:08:00;;;;;;;9.27;3.72;;;23.10;69.20;;;;;;4966853;28;95631;-57
2021/04/30 06:10:30;;;;;;;3.55;3.10;;;23.10;68.40;;;;;;4960187;28;98394;-58
2021/04/30 06:13:08;;;;;;;3.45;2.67;;;23.00;69.10;;;;;;4969095;28;95494;-55
2021/04/30 06:15:39;;;;;;;4.30;2.90;;;23.10;69.00;;;;;;4964783;28;98764;-59
2021/04/30 06:18:11;;;;;;;7.65;3.00;;;23.10;69.00;;;;;;4983901;28;95409;-56
2021/04/30 06:20:42;;;;;;;5.43;3.38;;;23.10;69.00;;;;;;4969205;28;96557;-56
2021/04/30 06:23:14;;;;;;;4.50;3.40;;;23.20;68.90;;;;;;4964953;28;95812;-53
2021/04/30 06:25:45;;;;;;;5.85;3.20;;;23.20;68.90;;;;;;4973745;28;96150;-56
2021/04/30 06:28:16;;;;;;;2.90;2.35;;;23.20;68.90;;;;;;4972726;28;95643;-59
2021/04/30 06:30:45;;;;;;;3.92;2.90;;;23.30;68.80;;;;;;4966960;28;96287;-60
2021/04/30 06:33:15;;;;;;;4.65;2.92;;;23.30;68.80;;;;;;4951317;28;95925;-60
2021/04/30 06:35:45;;;;;;;3.25;2.55;;;23.40;68.70;;;;;;4972797;28;95800;-58
2021/04/30 06:38:15;;;;;;;3.92;2.88;;;23.50;68.80;;;;;;4965324;28;95834;-58
2021/04/30 06:40:45;;;;;;;3.00;2.75;;;23.50;68.80;;;;;;4965642;28;95941;-60
2021/04/30 06:43:18;;;;;;;3.08;2.85;;;23.50;68.80;;;;;;4966774;28;95831;-58
2021/04/30 06:45:51;;;;;;;2.75;2.53;;;23.60;68.80;;;;;;4965783;28;99555;-59
2021/04/30 06:48:21;;;;;;;4.28;2.90;;;23.60;68.70;;;;;;4968020;28;98129;-57
2021/04/30 06:50:52;;;;;;;13.85;2.88;;;23.60;68.70;;;;;;4968948;28;96414;-59
2021/04/30 06:53:22;;;;;;;;;;;23.70;68.80;;;;;;4967839;28;96113;-58
2021/04/30 06:55:52;;;;;;;3.03;2.50;;;23.70;68.70;;;;;;4965848;28;95439;-57
2021/04/30 06:58:21;;;;;;;5.60;2.60;;;23.70;68.80;;;;;;4968131;28;95861;-59
2021/04/30 07:00:51;;;;;;;3.88;3.15;;;23.70;68.70;;;;;;4964029;28;95823;-57
2021/04/30 07:03:20;;;;;;;3.22;2.88;;;23.70;68.70;;;;;;4966938;28;95534;-59
2021/04/30 07:06:01;;;;;;;3.90;2.92;;;23.70;68.70;;;;;;4966437;28;95864;-57
2021/04/30 07:08:31;;;;;;;4.45;3.53;;;23.80;68.70;;;;;;4968728;28;95632;-59
2021/04/30 07:11:00;;;;;;;4.35;3.60;;;23.80;68.70;;;;;;4967592;28;96533;-56
2021/04/30 07:13:31;;;;;;;4.22;3.15;;;23.80;68.70;;;;;;4964984;28;95554;-57
2021/04/30 07:16:04;;;;;;;3.47;3.05;;;23.80;68.70;;;;;;4965978;28;95701;-58
2021/04/30 07:18:35;;;;;;;3.22;2.92;;;23.80;68.70;;;;;;4968478;28;96095;-59
2021/04/30 07:21:05;;;;;;;3.35;3.05;;;23.80;68.80;;;;;;4982865;28;99406;-59
2021/04/30 07:23:38;;;;;;;3.60;3.10;;;23.80;68.90;;;;;;4982190;28;96132;-58
2021/04/30 07:26:08;;;;;;;4.78;4.30;;;23.80;68.90;;;;;;4946756;28;96533;-58
2021/04/30 07:28:39;;;;;;;4.88;3.55;;;23.70;67.10;;;;;;4960499;28;95921;-53
2021/04/30 07:31:08;;;;;;;8.50;3.75;;;23.50;67.40;;;;;;4974075;28;103305;-53
2021/04/30 07:33:43;;;;;;;3.75;3.30;;;23.40;67.70;;;;;;4982036;28;96923;-54
2021/04/30 07:36:14;;;;;;;4.20;3.75;;;23.10;68.20;;;;;;4981837;28;97240;-52
2021/04/30 07:38:44;;;;;;;6.88;5.00;;;22.90;68.50;;;;;;4981053;28;96721;-54
2021/04/30 07:41:15;;;;;;;5.80;4.82;;;22.80;68.90;;;;;;4977102;28;95957;-52
2021/04/30 07:43:46;;;;;;;5.72;4.78;;;22.70;69.70;;;;;;4981111;28;95507;-52
2021/04/30 07:46:18;;;;;;;5.80;5.20;;;22.60;69.00;;;;;;4968609;28;96935;-52
2021/04/30 07:48:48;;;;;;;5.00;4.50;;;22.50;68.40;;;;;;4978609;28;95814;-54
2021/04/30 07:51:20;;;;;;;6.07;5.03;;;22.40;69.30;;;;;;4992410;28;98390;-50
2021/04/30 07:53:51;;;;;;;5.90;4.75;;;22.40;69.40;;;;;;4982710;28;95594;-55
2021/04/30 07:56:22;;;;;;;9.10;5.97;;;22.20;69.60;;;;;;4996890;28;95745;-54
2021/04/30 07:58:52;;;;;;;10.63;6.25;;;22.30;69.90;;;;;;4983051;28;96205;-55
2021/04/30 08:01:21;;;;;;;9.18;7.07;;;22.20;69.80;;;;;;4977290;28;97006;-55
2021/04/30 08:03:52;;;;;;;9.15;7.28;;;22.10;69.80;;;;;;4984563;28;96008;-52
2021/04/30 08:06:23;;;;;;;8.20;6.05;;;22.00;70.10;;;;;;4982268;28;95840;-52
2021/04/30 08:08:54;;;;;;;11.63;7.03;;;22.00;70.30;;;;;;4984174;28;96857;-54
2021/04/30 08:11:24;;;;;;;11.53;6.70;;;21.90;70.40;;;;;;4982151;28;96048;-54
2021/04/30 08:13:55;;;;;;;11.68;6.32;;;21.90;70.30;;;;;;4984100;28;96089;-49
2021/04/30 08:16:25;;;;;;;10.70;7.50;;;21.80;70.60;;;;;;4976592;28;101557;-50
2021/04/30 08:19:00;;;;;;;9.95;7.03;;;21.70;70.20;;;;;;4985211;28;95968;-54
2021/04/30 08:21:31;;;;;;;10.93;8.00;;;21.70;70.10;;;;;;4981635;28;96058;-52
2021/04/30 08:24:03;;;;;;;9.23;7.47;;;21.60;70.40;;;;;;4984968;28;95876;-51
2021/04/30 08:26:33;;;;;;;12.20;7.60;;;21.60;70.60;;;;;;4980770;28;95665;-52
2021/04/30 08:29:05;;;;;;;12.93;7.90;;;21.50;70.70;;;;;;4984402;28;95792;-57
2021/04/30 08:31:34;;;;;;;9.13;7.40;;;21.50;70.70;;;;;;4976778;28;96234;-55
2021/04/30 08:34:04;;;;;;;10.00;8.38;;;21.40;70.80;;;;;;4984631;28;96182;-55
2021/04/30 08:36:35;;;;;;;10.67;7.97;;;21.40;71.10;;;;;;4978440;28;98021;-56
2021/04/30 08:39:06;;;;;;;12.15;7.85;;;21.40;71.40;;;;;;4981429;28;96201;-55
2021/04/30 08:41:37;;;;;;;12.73;7.90;;;21.30;71.40;;;;;;4979185;28;95859;-55
2021/04/30 08:44:09;;;;;;;12.48;8.23;;;21.30;71.40;;;;;;4985900;28;96523;-57
2021/04/30 08:46:42;;;;;;;14.35;8.02;;;21.20;71.40;;;;;;4982820;28;95854;-55
2021/04/30 08:49:13;;;;;;;10.32;8.07;;;21.20;71.50;;;;;;4987679;28;95985;-55
2021/04/30 08:51:44;;;;;;;13.15;8.68;;;21.20;71.60;;;;;;4988599;28;95836;-53
2021/04/30 08:54:17;;;;;;;11.48;7.47;;;21.10;71.70;;;;;;4983773;28;95966;-53
2021/04/30 08:56:49;;;;;;;12.90;8.63;;;21.10;71.80;;;;;;4967219;28;95399;-53
2021/04/30 08:59:22;;;;;;;12.18;8.18;;;21.00;71.80;;;;;;4982814;28;96035;-54
2021/04/30 09:01:53;;;;;;;14.52;9.23;;;21.00;72.00;;;;;;4979969;28;96553;-53
2021/04/30 09:04:25;;;;;;;16.15;9.43;;;20.90;72.10;;;;;;4982175;28;95746;-54
2021/04/30 09:07:13;;;;;;;12.93;8.90;;;20.90;72.10;;;;;;4982151;28;95969;-57
2021/04/30 09:10:01;;;;;;;11.52;9.68;;;20.90;72.30;;;;;;4981941;28;95861;-54
2021/04/30 09:12:32;;;;;;;13.30;10.23;;;20.80;72.40;;;;;;4983605;28;96482;-54
2021/04/30 09:15:05;;;;;;;13.23;9.57;;;20.80;72.40;;;;;;4963252;28;95970;-54
2021/04/30 09:17:36;;;;;;;13.38;9.98;;;20.70;72.50;;;;;;4983414;28;96977;-56
2021/04/30 09:20:08;;;;;;;16.58;9.40;;;20.70;72.60;;;;;;4981939;28;95786;-56
2021/04/30 09:22:43;;;;;;;13.20;10.00;;;20.70;72.70;;;;;;4984169;28;95905;-52
2021/04/30 09:25:18;;;;;;;13.55;9.20;;;20.70;72.80;;;;;;4979875;28;95907;-57
2021/04/30 09:27:50;;;;;;;13.05;9.95;;;20.60;72.80;;;;;;4984360;28;97058;-53
2021/04/30 09:30:28;;;;;;;13.23;9.70;;;20.60;72.90;;;;;;4978227;28;102352;-53
2021/04/30 09:33:03;;;;;;;14.63;10.32;;;20.50;72.90;;;;;;4982309;28;103108;-53
2021/04/30 09:35:44;;;;;;;14.63;10.10;;;20.50;72.90;;;;;;4980663;28;96226;-51
2021/04/30 09:38:43;;;;;;;16.92;10.50;;;20.50;73.00;;;;;;4966859;28;95967;-51
2021/04/30 09:41:15;;;;;;;15.73;11.18;;;20.40;73.10;;;;;;4972845;28;95683;-52
2021/04/30 09:43:48;;;;;;;19.45;11.60;;;20.30;73.20;;;;;;4974837;28;95919;-52
2021/04/30 09:46:32;;;;;;;14.77;10.68;;;20.30;73.40;;;;;;4968823;28;98432;-50
2021/04/30 09:49:14;;;;;;;17.85;11.90;;;20.20;73.60;;;;;;4972661;28;95736;-51
2021/04/30 09:51:45;;;;;;;15.30;10.88;;;20.10;73.60;;;;;;4975634;28;95902;-50
2021/04/30 09:54:25;;;;;;;16.30;11.70;;;20.10;73.90;;;;;;4970982;28;95862;-50
2021/04/30 09:57:08;;;;;;;16.75;11.27;;;20.00;74.00;;;;;;4980524;28;95478;-51
2021/04/30 09:59:40;;;;;;;18.50;12.88;;;20.00;74.10;;;;;;4991679;28;96295;-52
2021/04/30 10:02:15;;;;;;;18.38;12.55;;;19.90;74.10;;;;;;4978979;28;95694;-51
2021/04/30 10:04:49;;;;;;;16.83;10.95;;;19.90;74.20;;;;;;4973160;28;95830;-52
2021/04/30 10:07:31;;;;;;;17.52;12.00;;;19.80;74.40;;;;;;4971618;28;96181;-51
2021/04/30 10:10:23;;;;;;;18.80;12.97;;;19.80;74.50;;;;;;4974410;28;99479;-50
2021/04/30 10:12:57;;;;;;;19.10;12.65;;;19.70;74.50;;;;;;4973386;28;95628;-51
2021/04/30 10:15:28;;;;;;;21.05;13.50;;;19.70;74.60;;;;;;4984219;28;95863;-51
2021/04/30 10:18:02;;;;;;;17.08;13.23;;;19.60;74.70;;;;;;4973268;28;95779;-50
2021/04/30 10:20:34;;;;;;;22.25;14.48;;;19.50;74.90;;;;;;4971523;28;95971;-49
2021/04/30 10:23:14;;;;;;;21.60;14.98;;;19.50;74.90;;;;;;4975304;28;95987;-49
2021/04/30 10:25:48;;;;;;;20.95;13.18;;;19.50;75.10;;;;;;4969999;28;99826;-49
2021/04/30 10:28:27;;;;;;;19.70;13.07;;;19.40;75.00;;;;;;4970712;28;95541;-49
2021/04/30 10:31:07;;;;;;;22.45;15.00;;;19.40;75.10;;;;;;4969267;28;95644;-51
2021/04/30 10:34:17;;;;;;;24.17;15.15;;;19.30;75.10;;;;;;4971117;28;96595;-50
2021/04/30 10:36:54;;;;;;;22.95;14.35;;;19.30;75.10;;;;;;4971985;28;96419;-48
2021/04/30 10:39:34;;;;;;;22.65;14.75;;;19.30;75.20;;;;;;4971767;28;95694;-49
2021/04/30 10:42:21;;;;;;;22.33;15.27;;;19.20;75.30;;;;;;4970754;28;95561;-49
2021/04/30 10:45:00;;;;;;;22.33;15.63;;;19.20;75.20;;;;;;4975490;28;95658;-49
2021/04/30 10:47:30;;;;;;;20.58;14.95;;;19.10;75.30;;;;;;4970315;28;96011;-50
2021/04/30 10:50:20;;;;;;;21.88;14.85;;;19.10;75.40;;;;;;4979441;28;95658;-51
2021/04/30 10:52:55;;;;;;;21.10;14.85;;;19.00;75.50;;;;;;4965000;28;95379;-51
2021/04/30 10:55:40;;;;;;;22.05;15.32;;;19.00;75.50;;;;;;4971324;28;95339;-51
2021/04/30 10:58:10;;;;;;;21.40;14.73;;;19.00;75.60;;;;;;4972500;28;95903;-52
2021/04/30 11:00:42;;;;;;;24.67;16.02;;;19.00;75.50;;;;;;4969950;28;95932;-50
2021/04/30 11:03:20;;;;;;;28.42;16.38;;;18.90;75.80;;;;;;4985104;28;95892;-50
2021/04/30 11:06:04;;;;;;;21.67;15.38;;;18.90;75.70;;;;;;4971266;28;95260;-49
2021/04/30 11:08:49;;;;;;;22.15;14.98;;;18.80;75.80;;;;;;4982941;28;96015;-50
2021/04/30 11:11:38;;;;;;;20.05;15.95;;;18.80;75.70;;;;;;4982448;28;95853;-50
2021/04/30 11:14:23;;;;;;;21.52;15.20;;;18.70;75.90;;;;;;4973444;28;102960;-51
2021/04/30 11:16:55;;;;;;;25.58;15.43;;;18.80;75.60;;;;;;4967705;28;95845;-50
2021/04/30 11:19:31;;;;;;;28.13;16.80;;;18.70;75.70;;;;;;4968324;28;99492;-50
2021/04/30 11:22:14;;;;;;;26.65;16.75;;;18.70;75.70;;;;;;4969577;28;95728;-51
2021/04/30 11:24:51;;;;;;;23.38;15.73;;;18.60;75.90;;;;;;4970467;28;95826;-50
2021/04/30 11:27:21;;;;;;;22.75;14.50;;;18.60;75.90;;;;;;4970848;28;95656;-53
2021/04/30 11:29:52;;;;;;;23.90;16.52;;;18.60;75.90;;;;;;4979773;28;95860;-52
2021/04/30 11:32:28;;;;;;;21.15;15.30;;;18.50;75.90;;;;;;4973200;28;96112;-50
2021/04/30 11:35:00;;;;;;;24.65;15.07;;;18.50;76.10;;;;;;4967592;28;95799;-51
2021/04/30 11:37:37;;;;;;;22.38;15.60;;;18.50;76.30;;;;;;4969432;28;95653;-52
2021/04/30 11:40:31;;;;;;;21.70;16.05;;;18.50;75.80;;;;;;4981782;28;95675;-49
2021/04/30 11:43:06;;;;;;;26.10;16.13;;;18.40;75.80;;;;;;4974878;28;96626;-55
2021/04/30 11:45:39;;;;;;;24.60;15.52;;;18.40;75.80;;;;;;4977204;28;95909;-50
2021/04/30 11:48:09;;;;;;;25.60;16.38;;;18.40;76.10;;;;;;4967644;28;95280;-54
2021/04/30 11:50:41;;;;;;;24.48;18.08;;;18.40;75.90;;;;;;4966249;28;95842;-55
2021/04/30 11:53:14;;;;;;;25.27;15.93;;;18.40;76.00;;;;;;4967236;28;95818;-54
2021/04/30 11:55:47;;;;;;;22.55;17.08;;;18.40;76.10;;;;;;4968923;28;95522;-54
2021/04/30 11:58:17;;;;;;;21.63;16.33;;;18.40;75.90;;;;;;4969735;28;95764;-54
2021/04/30 12:00:54;;;;;;;31.40;16.85;;;18.30;75.90;;;;;;4964086;28;99937;-51
2021/04/30 12:03:24;;;;;;;20.17;16.30;;;18.30;76.20;;;;;;4967719;28;95899;-54
2021/04/30 12:05:55;;;;;;;;;;;18.30;75.90;;;;;;4963788;28;98221;-55
2021/04/30 12:08:26;;;;;;;23.92;16.63;;;18.20;75.80;;;;;;4969464;28;96318;-53
2021/04/30 12:10:56;;;;;;;25.30;16.30;;;18.20;75.70;;;;;;4967870;28;96129;-53
2021/04/30 12:13:26;;;;;;;23.88;16.92;;;18.20;75.80;;;;;;4968176;28;95703;-51
2021/04/30 12:15:57;;;;;;;27.02;17.17;;;18.20;75.90;;;;;;4962917;28;95477;-55
2021/04/30 12:18:34;;;;;;;26.60;17.35;;;18.20;75.80;;;;;;4972094;28;95725;-54
2021/04/30 12:21:05;;;;;;;23.30;16.73;;;18.20;75.80;;;;;;4968701;28;97096;-54
2021/04/30 12:23:36;;;;;;;22.25;16.80;;;18.10;75.70;;;;;;4971679;28;95816;-54
2021/04/30 12:26:08;;;;;;;24.10;16.48;;;18.10;75.60;;;;;;4973754;28;98181;-52
2021/04/30 12:28:39;;;;;;;24.30;16.60;;;18.00;75.70;;;;;;4977452;28;95258;-53
2021/04/30 12:31:12;;;;;;;24.13;17.93;;;18.10;75.80;;;;;;4966207;28;95855;-53
2021/04/30 12:33:48;;;;;;;26.15;17.70;;;18.00;75.70;;;;;;4975179;28;95841;-55
2021/04/30 12:36:21;;;;;;;22.63;15.85;;;18.00;75.80;;;;;;4973896;28;96603;-53
2021/04/30 12:38:57;;;;;;;25.67;16.70;;;18.00;75.80;;;;;;4972190;28;95817;-55
2021/04/30 12:41:30;;;;;;;25.30;16.45;;;18.00;75.80;;;;;;4973717;28;95829;-53
2021/04/30 12:44:09;;;;;;;27.95;18.67;;;18.00;75.80;;;;;;4972540;28;96058;-53
2021/04/30 12:46:44;;;;;;;28.48;17.35;;;17.90;75.70;;;;;;4968972;28;95803;-54
2021/04/30 12:49:15;;;;;;;23.88;17.35;;;17.90;75.80;;;;;;4985715;28;96041;-53
2021/04/30 12:51:54;;;;;;;29.87;18.10;;;17.90;75.70;;;;;;4968105;28;95843;-56
2021/04/30 12:54:29;;;;;;;26.73;16.70;;;17.80;75.70;;;;;;4970916;28;95758;-56
2021/04/30 12:57:01;;;;;;;25.95;18.23;;;17.80;75.70;;;;;;4968158;28;96206;-54
2021/04/30 12:59:31;;;;;;;20.95;15.82;;;17.80;75.70;;;;;;4968364;28;95704;-56
2021/04/30 13:02:12;;;;;;;25.10;17.85;;;17.80;75.70;;;;;;4964836;28;98800;-54
2021/04/30 13:04:45;;;;;;;25.50;18.45;;;17.80;75.70;;;;;;4971817;28;95763;-53
2021/04/30 13:07:16;;;;;;;23.15;17.08;;;17.70;75.60;;;;;;4971065;28;95860;-52
2021/04/30 13:09:46;;;;;;;;;;;17.70;75.70;;;;;;4971006;28;95831;-54